createdAt,value
2018-09-25T00:01:45.898Z,101609.61
2018-09-25T00:04:20.362Z,101608.70
2018-09-25T00:06:54.205Z,101609.11
2018-09-25T00:09:28.696Z,101613.41
2018-09-25T00:12:02.560Z,101613.39
2018-09-25T00:14:36.596Z,101621.95
2018-09-25T00:17:10.595Z,101623.37
2018-09-25T00:19:44.659Z,101635.11
2018-09-25T00:22:19.399Z,101636.98
2018-09-25T00:24:53.617Z,101649.72
2018-09-25T00:27:28.019Z,101649.16
2018-09-25T00:30:01.876Z,101661.16
2018-09-25T00:32:43.536Z,101658.45
2018-09-25T00:35:17.450Z,101661.86
2018-09-25T00:37:51.403Z,101654.92
2018-09-25T00:40:25.330Z,101665.62
2018-09-25T00:42:59.494Z,101669.38
2018-09-25T00:45:34.007Z,101669.38
2018-09-25T00:48:07.903Z,101675.53
2018-09-25T00:50:41.859Z,101662.83
2018-09-25T00:53:16.647Z,101674.77
2018-09-25T00:55:50.495Z,101683.34
2018-09-25T00:58:26.551Z,101684.36
2018-09-25T01:01:01.144Z,101690.32
2018-09-25T01:03:35.176Z,101698.77
2018-09-25T01:06:09.802Z,101695.31
2018-09-25T01:08:45.171Z,101707.97
2018-09-25T01:11:19.102Z,101716.54
2018-09-25T01:13:53.303Z,101719.33
2018-09-25T01:16:27.261Z,101720.91
2018-09-25T01:19:02.237Z,101726.51
2018-09-25T01:21:36.651Z,101731.23
2018-09-25T01:24:10.438Z,101732.95
2018-09-25T01:26:44.915Z,101735.54
2018-09-25T01:29:18.695Z,101741.23
2018-09-25T01:31:53.517Z,101743.30
2018-09-25T01:34:28.508Z,101745.66
2018-09-25T01:37:02.319Z,101745.68
2018-09-25T01:39:36.433Z,101759.31
2018-09-25T01:42:10.385Z,101763.09
2018-09-25T01:44:45.317Z,101758.17
2018-09-25T01:47:19.456Z,101757.94
2018-09-25T01:49:53.669Z,101758.20
2018-09-25T01:52:27.963Z,101762.35
2018-09-25T01:55:01.903Z,101771.28
2018-09-25T01:57:36.406Z,101771.21
2018-09-25T02:00:11.496Z,101774.84
2018-09-25T02:02:45.454Z,101779.22
2018-09-25T02:05:20.589Z,101784.89
2018-09-25T02:07:54.539Z,101787.19
2018-09-25T02:10:29.840Z,101790.72
2018-09-25T02:13:03.792Z,101789.77
2018-09-25T02:15:37.671Z,101786.03
2018-09-25T02:18:11.708Z,101787.76
2018-09-25T02:20:45.694Z,101791.61
2018-09-25T02:23:19.603Z,101795.23
2018-09-25T02:25:54.913Z,101799.35
2018-09-25T02:28:29.468Z,101801.52
2018-09-25T02:31:03.364Z,101804.89
2018-09-25T02:33:37.888Z,101810.42
2018-09-25T02:36:12.085Z,101800.22
2018-09-25T02:38:46.028Z,101806.12
2018-09-25T02:41:19.860Z,101808.40
2018-09-25T02:43:54.592Z,101815.65
2018-09-25T02:46:28.413Z,101816.13
2018-09-25T02:49:02.317Z,101821.41
2018-09-25T02:51:36.384Z,101822.27
2018-09-25T02:54:11.659Z,101825.38
2018-09-25T02:56:45.606Z,101820.70
2018-09-25T02:59:19.796Z,101828.88
2018-09-25T03:01:54.426Z,101835.25
2018-09-25T03:04:28.503Z,101832.38
2018-09-25T03:07:02.541Z,101829.73
2018-09-25T03:09:37.166Z,101841.13
2018-09-25T03:12:11.578Z,101847.05
2018-09-25T03:14:45.539Z,101846.44
2018-09-25T03:17:19.352Z,101849.78
2018-09-25T03:19:53.521Z,101851.34
2018-09-25T03:22:27.641Z,101852.45
2018-09-25T03:25:01.536Z,101854.12
2018-09-25T03:27:36.756Z,101861.34
2018-09-25T03:30:11.716Z,101858.32
2018-09-25T03:32:45.655Z,101868.08
2018-09-25T03:35:20.329Z,101870.02
2018-09-25T03:37:54.512Z,101871.34
2018-09-25T03:40:28.508Z,101877.83
2018-09-25T03:43:02.333Z,101873.98
2018-09-25T03:45:37.065Z,101869.64
2018-09-25T03:48:10.948Z,101871.56
2018-09-25T03:50:45.486Z,101876.97
2018-09-25T03:53:20.998Z,101876.97
2018-09-25T03:55:54.774Z,101884.54
2018-09-25T03:58:29.072Z,101885.39
2018-09-25T04:01:03.465Z,101882.73
2018-09-25T04:03:37.352Z,101887.07
2018-09-25T04:06:11.220Z,101892.73
2018-09-25T04:08:45.907Z,101891.66
2018-09-25T04:11:20.499Z,101885.50
2018-09-25T04:13:55.807Z,101896.72
2018-09-25T04:16:29.698Z,101894.07
2018-09-25T04:19:03.646Z,101894.05
2018-09-25T04:21:37.704Z,101900.19
2018-09-25T04:24:12.652Z,101904.27
2018-09-25T04:26:46.884Z,101903.31
2018-09-25T04:29:21.428Z,101903.91
2018-09-25T04:31:55.287Z,101911.36
2018-09-25T04:34:29.707Z,101915.22
2018-09-25T04:37:03.611Z,101910.05
2018-09-25T04:39:37.648Z,101910.64
2018-09-25T04:42:11.716Z,101917.50
2018-09-25T04:44:45.758Z,101917.25
2018-09-25T04:47:19.734Z,101922.06
2018-09-25T04:49:54.372Z,101925.56
2018-09-25T04:52:29.058Z,101933.02
2018-09-25T04:55:03.503Z,101923.48
2018-09-25T04:57:37.838Z,101947.06
2018-09-25T05:00:12.329Z,101941.66
2018-09-25T05:02:47.155Z,101945.29
2018-09-25T05:05:20.952Z,101954.29
2018-09-25T05:07:54.836Z,101957.30
2018-09-25T05:10:29.803Z,101958.52
2018-09-25T05:13:04.256Z,101970.30
2018-09-25T05:15:38.133Z,101977.53
2018-09-25T05:18:12.098Z,101974.41
2018-09-25T05:20:45.984Z,101972.23
2018-09-25T05:23:20.048Z,101970.80
2018-09-25T05:25:55.613Z,101980.42
2018-09-25T05:28:30.528Z,101978.03
2018-09-25T05:31:04.479Z,101974.65
2018-09-25T05:33:39.000Z,101974.55
2018-09-25T05:36:13.544Z,101976.96
2018-09-25T05:38:47.509Z,101980.45
2018-09-25T05:41:21.427Z,101981.08
2018-09-25T05:43:56.395Z,101978.80
2018-09-25T05:46:30.390Z,101983.48
2018-09-25T05:49:05.143Z,101991.53
2018-09-25T05:51:40.179Z,101985.52
2018-09-25T05:54:15.230Z,101984.89
2018-09-25T05:56:49.280Z,101989.23
2018-09-25T05:59:24.463Z,101991.01
2018-09-25T06:01:58.280Z,101995.83
2018-09-25T06:04:32.216Z,101999.77
2018-09-25T06:07:06.553Z,102000.25
2018-09-25T06:09:41.484Z,101999.89
2018-09-25T06:12:16.072Z,102004.08
2018-09-25T06:14:50.147Z,102002.47
2018-09-25T06:17:24.524Z,102007.52
2018-09-25T06:19:58.438Z,102013.27
2018-09-25T06:22:33.229Z,102021.83
2018-09-25T06:25:07.117Z,102026.77
2018-09-25T06:27:41.711Z,102017.36
2018-09-25T06:30:15.657Z,102028.77
2018-09-25T06:32:49.705Z,102015.22
2018-09-25T06:35:24.287Z,102029.38
2018-09-25T06:37:58.250Z,102035.27
2018-09-25T06:40:32.235Z,102040.50
2018-09-25T06:43:06.320Z,102036.33
2018-09-25T06:45:40.427Z,102035.41
2018-09-25T06:48:14.485Z,102036.23
2018-09-25T06:50:49.247Z,102044.50
2018-09-25T06:53:24.744Z,102043.79
2018-09-25T06:55:58.628Z,102050.27
2018-09-25T06:58:33.182Z,102059.81
2018-09-25T07:01:07.924Z,102052.51
2018-09-25T07:03:41.857Z,102059.88
2018-09-25T07:06:15.793Z,102055.91
2018-09-25T07:08:49.605Z,102060.61
2018-09-25T07:11:23.868Z,102064.69
2018-09-25T07:13:59.560Z,102065.75
2018-09-25T07:16:33.465Z,102056.98
2018-09-25T07:19:07.545Z,102060.28
2018-09-25T07:25:18.439Z,102066.88
2018-09-25T07:31:16.806Z,102072.16
2018-09-25T07:33:51.440Z,102076.53
2018-09-25T07:36:25.335Z,102078.30
2018-09-25T07:38:59.234Z,102073.41
2018-09-25T07:41:33.137Z,102075.15
2018-09-25T07:44:07.100Z,102067.28
2018-09-25T07:47:43.933Z,102071.13
2018-09-25T07:50:19.656Z,102071.52
2018-09-25T07:52:54.400Z,102071.14
2018-09-25T07:55:28.322Z,102069.07
2018-09-25T07:58:02.640Z,102067.69
2018-09-25T08:00:37.067Z,102070.27
2018-09-25T08:03:11.143Z,102074.47
2018-09-25T08:05:45.092Z,102077.50
2018-09-25T08:08:19.096Z,102078.19
2018-09-25T08:10:53.901Z,102077.55
2018-09-25T08:13:29.296Z,102069.19
2018-09-25T08:16:04.164Z,102069.42
2018-09-25T08:18:38.052Z,102084.40
2018-09-25T08:21:11.858Z,102084.10
2018-09-25T08:23:46.083Z,102077.11
2018-09-25T08:26:20.863Z,102086.81
2018-09-25T08:28:55.516Z,102085.52
2018-09-25T08:31:29.506Z,102090.44
2018-09-25T08:34:04.199Z,102096.67
2018-09-25T08:36:38.137Z,102092.00
2018-09-25T08:39:14.844Z,102097.23
2018-09-25T08:41:49.439Z,102097.30
2018-09-25T08:44:23.852Z,102095.33
2018-09-25T08:46:58.068Z,102098.37
2018-09-25T08:49:33.215Z,102092.21
2018-09-25T08:52:09.086Z,102094.58
2018-09-25T08:54:43.251Z,102095.25
2018-09-25T08:57:17.278Z,102084.09
2018-09-25T08:59:52.821Z,102084.31
2018-09-25T09:02:30.417Z,102085.98
2018-09-25T09:05:04.903Z,102094.87
2018-09-25T09:07:38.758Z,102094.87
2018-09-25T09:10:13.559Z,102098.09
2018-09-25T09:15:39.325Z,102108.66
2018-09-25T09:18:13.400Z,102112.48
2018-09-25T09:20:47.450Z,102108.80
2018-09-25T09:23:21.319Z,102113.52
2018-09-25T09:25:56.248Z,102111.34
2018-09-25T09:28:31.051Z,102106.99
2018-09-25T09:31:05.007Z,102096.45
2018-09-25T09:33:40.104Z,102110.69
2018-09-25T09:36:14.157Z,102113.53
2018-09-25T09:38:48.537Z,102100.65
2018-09-25T09:41:22.742Z,102102.81
2018-09-25T09:43:58.096Z,102101.83
2018-09-25T09:46:32.869Z,102097.84
2018-09-25T09:49:07.663Z,102109.22
2018-09-25T09:51:42.098Z,102094.32
2018-09-25T09:54:16.725Z,102097.67
2018-09-25T09:56:50.658Z,102103.38
2018-09-25T09:59:25.211Z,102092.30
2018-09-25T10:01:59.160Z,102081.90
2018-09-25T10:04:33.062Z,102079.40
2018-09-25T10:07:07.083Z,102085.23
2018-09-25T10:09:41.172Z,102085.74
2018-09-25T10:12:15.115Z,102077.37
2018-09-25T10:14:49.717Z,102076.38
2018-09-25T10:17:24.763Z,102083.25
2018-09-25T10:19:58.679Z,102078.36
2018-09-25T10:22:33.661Z,102080.03
2018-09-25T10:25:07.566Z,102075.17
2018-09-25T10:27:43.016Z,102068.97
2018-09-25T10:30:16.842Z,102077.19
2018-09-25T10:32:50.756Z,102084.03
2018-09-25T10:35:25.530Z,102080.02
2018-09-25T10:37:59.589Z,102076.16
2018-09-25T10:40:33.425Z,102065.76
2018-09-25T10:43:08.823Z,102066.77
2018-09-25T10:45:45.560Z,102072.44
2018-09-25T10:48:21.032Z,102067.20
2018-09-25T10:50:55.303Z,102063.67
2018-09-25T10:53:29.826Z,102068.03
2018-09-25T10:56:03.908Z,102067.53
2018-09-25T10:58:38.354Z,102059.14
2018-09-25T11:01:14.632Z,102069.04
2018-09-25T11:03:49.470Z,102064.13
2018-09-25T11:06:27.198Z,102066.98
2018-09-25T11:09:41.957Z,102073.87
2018-09-25T11:12:28.045Z,102076.04
2018-09-25T11:15:06.645Z,102082.24
2018-09-25T11:17:57.286Z,102085.73
2018-09-25T11:20:36.369Z,102079.34
2018-09-25T11:23:10.441Z,102088.91
2018-09-25T11:25:45.164Z,102085.01
2018-09-25T11:28:19.846Z,102077.98
2018-09-25T11:30:53.998Z,102081.52
2018-09-25T11:33:28.662Z,102080.02
2018-09-25T11:36:02.584Z,102072.12
2018-09-25T11:38:36.706Z,102070.56
2018-09-25T11:41:11.526Z,102061.83
2018-09-25T11:43:45.529Z,102052.08
2018-09-25T11:46:23.349Z,102039.44
2018-09-25T11:48:57.936Z,102048.84
2018-09-25T11:51:32.340Z,102046.98
2018-09-25T11:54:06.863Z,102035.31
2018-09-25T11:56:40.760Z,102035.98
2018-09-25T11:59:16.860Z,102027.25
2018-09-25T12:01:51.327Z,102033.23
2018-09-25T12:04:27.961Z,102027.66
2018-09-25T12:07:01.897Z,102018.17
2018-09-25T12:09:36.204Z,102024.56
2018-09-25T12:14:49.843Z,102026.42
2018-09-25T12:17:24.724Z,102032.30
2018-09-25T12:19:58.698Z,102017.84
2018-09-25T12:22:32.809Z,102024.59
2018-09-25T12:25:06.687Z,102023.40
2018-09-25T12:27:41.193Z,102009.42
2018-09-25T12:30:15.396Z,102009.76
2018-09-25T12:32:50.162Z,102003.72
2018-09-25T12:35:25.233Z,102005.55
2018-09-25T12:37:59.876Z,101998.44
2018-09-25T12:40:33.862Z,101988.02
2018-09-25T12:43:07.963Z,101990.70
2018-09-25T12:45:41.865Z,101986.55
2018-09-25T12:48:16.942Z,101990.89
2018-09-25T12:50:51.719Z,101992.08
2018-09-25T12:53:26.230Z,101987.69
2018-09-25T12:56:00.270Z,101985.06
2018-09-25T12:58:35.127Z,101977.28
2018-09-25T13:01:10.353Z,101976.45
2018-09-25T13:03:45.777Z,101971.40
2018-09-25T13:06:19.841Z,101967.36
2018-09-25T13:08:58.981Z,101963.29
2018-09-25T13:11:34.191Z,101959.84
2018-09-25T13:14:08.206Z,101955.95
2018-09-25T13:16:42.048Z,101949.27
2018-09-25T13:19:16.345Z,101959.80
2018-09-25T13:21:50.206Z,101958.87
2018-09-25T13:24:24.773Z,101958.17
2018-09-25T13:26:59.888Z,101961.19
2018-09-25T13:29:33.908Z,101954.50
2018-09-25T13:32:07.809Z,101959.66
2018-09-25T13:34:42.190Z,101960.31
2018-09-25T13:37:17.498Z,101953.83
2018-09-25T13:39:51.376Z,101949.75
2018-09-25T13:42:25.980Z,101947.77
2018-09-25T13:45:00.253Z,101950.66
2018-09-25T13:47:36.692Z,101936.62
2018-09-25T13:50:11.847Z,101937.28
2018-09-25T13:55:27.417Z,101940.72
2018-09-25T13:58:02.007Z,101938.16
2018-09-25T14:00:36.373Z,101951.91
2018-09-25T14:03:10.968Z,101933.38
2018-09-25T14:05:45.645Z,101924.56
2018-09-25T14:08:19.529Z,101927.02
2018-09-25T14:10:53.803Z,101933.56
2018-09-25T14:13:27.662Z,101933.52
2018-09-25T14:16:02.427Z,101925.86
2018-09-25T14:18:36.656Z,101930.09
2018-09-25T14:21:16.701Z,101931.52
2018-09-25T14:23:54.791Z,101929.11
2018-09-25T14:26:30.256Z,101926.88
2018-09-25T14:29:04.724Z,101924.93
2018-09-25T14:31:38.539Z,101913.45
2018-09-25T14:34:13.181Z,101920.45
2018-09-25T14:36:47.128Z,101915.63
2018-09-25T14:39:51.844Z,101911.77
2018-09-25T14:42:25.836Z,101905.37
2018-09-25T14:45:00.178Z,101903.00
2018-09-25T14:47:34.200Z,101908.39
2018-09-25T14:50:13.874Z,101905.23
2018-09-25T14:52:49.402Z,101904.66
2018-09-25T14:55:23.868Z,101912.91
2018-09-25T14:57:58.572Z,101903.67
2018-09-25T15:00:32.835Z,101908.48
2018-09-25T15:03:06.833Z,101913.14
2018-09-25T15:05:43.649Z,101908.27
2018-09-25T15:08:17.474Z,101919.76
2018-09-25T15:10:51.488Z,101903.61
2018-09-25T15:13:25.606Z,101914.23
2018-09-25T15:15:59.719Z,101907.65
2018-09-25T15:18:34.652Z,101911.91
2018-09-25T15:21:08.596Z,101906.39
2018-09-25T15:23:42.623Z,101898.35
2018-09-25T15:26:18.428Z,101905.48
2018-09-25T15:28:53.635Z,101916.28
2018-09-25T15:31:28.413Z,101916.72
2018-09-25T15:34:03.146Z,101909.38
2018-09-25T15:36:37.356Z,101899.81
2018-09-25T15:39:14.100Z,101901.22
2018-09-25T15:41:48.321Z,101900.75
2018-09-25T15:44:22.441Z,101895.66
2018-09-25T15:46:56.578Z,101903.18
2018-09-25T15:49:32.044Z,101899.03
2018-09-25T15:55:11.200Z,101893.57
2018-09-25T15:57:46.228Z,101894.65
2018-09-25T16:00:20.805Z,101889.48
2018-09-25T16:02:54.718Z,101879.66
2018-09-25T16:05:29.251Z,101889.45
2018-09-25T16:08:03.278Z,101881.13
2018-09-25T16:10:37.241Z,101873.23
2018-09-25T16:13:11.113Z,101866.42
2018-09-25T16:15:46.338Z,101869.97
2018-09-25T16:18:20.287Z,101873.19
2018-09-25T16:20:54.675Z,101867.22
2018-09-25T16:23:28.653Z,101857.51
2018-09-25T16:26:03.465Z,101872.69
2018-09-25T16:28:38.846Z,101869.03
2018-09-25T16:31:12.939Z,101872.28
2018-09-25T16:33:48.302Z,101869.96
2018-09-25T16:36:22.349Z,101876.19
2018-09-25T16:38:56.332Z,101868.36
2018-09-25T16:41:30.268Z,101873.59
2018-09-25T16:44:04.417Z,101873.14
2018-09-25T16:46:38.456Z,101871.15
2018-09-25T16:49:13.517Z,101873.72
2018-09-25T16:51:48.258Z,101876.41
2018-09-25T16:54:22.261Z,101874.91
2018-09-25T16:56:56.341Z,101871.56
2018-09-25T16:59:30.784Z,101863.39
2018-09-25T17:02:04.807Z,101863.06
2018-09-25T17:04:39.453Z,101864.75
2018-09-25T17:07:14.035Z,101857.55
2018-09-25T17:09:49.152Z,101862.61
2018-09-25T17:12:23.250Z,101860.10
2018-09-25T17:14:57.264Z,101867.66
2018-09-25T17:17:31.259Z,101873.02
2018-09-25T17:20:05.414Z,101866.99
2018-09-25T17:22:39.488Z,101861.00
2018-09-25T17:25:14.281Z,101860.33
2018-09-25T17:27:49.076Z,101860.50
2018-09-25T17:30:24.105Z,101865.36
2018-09-25T17:32:57.989Z,101857.14
2018-09-25T17:35:32.891Z,101850.11
2018-09-25T17:38:06.792Z,101847.42
2018-09-25T17:40:40.796Z,101839.55
2018-09-25T17:43:16.161Z,101845.92
2018-09-25T17:45:50.241Z,101844.58
2018-09-25T17:48:24.102Z,101851.95
2018-09-25T17:50:59.377Z,101844.41
2018-09-25T17:53:33.825Z,101842.88
2018-09-25T17:56:07.903Z,101840.23
2018-09-25T17:58:42.552Z,101835.55
2018-09-25T18:01:17.153Z,101831.20
2018-09-25T18:03:51.646Z,101824.00
2018-09-25T18:06:26.746Z,101815.32
2018-09-25T18:09:00.501Z,101813.14
2018-09-25T18:11:34.467Z,101809.80
2018-09-25T18:14:08.394Z,101802.25
2018-09-25T18:16:42.983Z,101794.39
2018-09-25T18:19:16.850Z,101791.70
2018-09-25T18:21:50.749Z,101789.53
2018-09-25T18:24:24.881Z,101782.66
2018-09-25T18:26:59.778Z,101787.86
2018-09-25T18:29:33.584Z,101789.07
2018-09-25T18:32:07.613Z,101788.73
2018-09-25T18:34:42.184Z,101780.36
2018-09-25T18:37:17.013Z,101779.52
2018-09-25T18:39:51.037Z,101772.32
2018-09-25T18:42:24.848Z,101768.63
2018-09-25T18:44:59.292Z,101763.07
2018-09-25T18:47:33.147Z,101757.41
2018-09-25T18:50:08.405Z,101756.91
2018-09-25T18:52:43.155Z,101757.08
2018-09-25T18:55:17.368Z,101749.88
2018-09-25T18:57:52.185Z,101753.05
2018-09-25T19:00:26.622Z,101743.68
2018-09-25T19:03:00.483Z,101735.13
2018-09-25T19:05:35.356Z,101734.93
2018-09-25T19:08:09.344Z,101717.21
2018-09-25T19:10:43.267Z,101717.21
2018-09-25T19:13:17.174Z,101718.55
2018-09-25T19:15:51.391Z,101714.03
2018-09-25T19:18:28.344Z,101711.34
2018-09-25T19:21:02.380Z,101707.63
2018-09-25T19:23:37.179Z,101706.27
2018-09-25T19:26:22.461Z,101700.58
2018-09-25T19:28:59.677Z,101705.44
2018-09-25T19:31:41.503Z,101700.25
2018-09-25T19:37:47.958Z,101710.63
2018-09-25T19:40:21.826Z,101713.14
2018-09-25T19:42:55.668Z,101713.45
2018-09-25T19:45:29.856Z,101710.40
2018-09-25T19:48:03.816Z,101705.38
2018-09-25T19:50:38.211Z,101712.39
2018-09-25T19:53:13.331Z,101695.64
2018-09-25T19:55:47.261Z,101704.02
2018-09-25T19:58:21.884Z,101696.98
2018-09-25T20:00:56.479Z,101701.17
2018-09-25T20:03:30.427Z,101695.83
2018-09-25T20:06:04.711Z,101686.14
2018-09-25T20:08:38.512Z,101689.96
2018-09-25T20:11:13.193Z,101681.09
2018-09-25T20:13:48.181Z,101684.09
2018-09-25T20:16:22.069Z,101682.92
2018-09-25T20:18:55.971Z,101675.72
2018-09-25T20:21:30.084Z,101679.28
2018-09-25T20:24:05.937Z,101674.25
2018-09-25T20:26:40.281Z,101676.44
2018-09-25T20:29:15.546Z,101673.75
2018-09-25T20:31:49.424Z,101665.88
2018-09-25T20:34:23.637Z,101670.91
2018-09-25T20:36:58.284Z,101667.73
2018-09-25T20:39:32.259Z,101658.68
2018-09-25T20:42:06.271Z,101652.81
2018-09-25T20:44:40.280Z,101646.11
2018-09-25T20:47:15.008Z,101645.10
2018-09-25T20:49:49.893Z,101648.80
2018-09-25T20:52:24.555Z,101654.98
2018-09-25T20:54:58.425Z,101656.28
2018-09-25T20:57:33.763Z,101650.92
2018-09-25T21:00:08.127Z,101646.22
2018-09-25T21:02:42.014Z,101636.33
2018-09-25T21:05:16.918Z,101628.62
2018-09-25T21:07:50.676Z,101626.59
2018-09-25T21:10:24.668Z,101625.59
2018-09-25T21:12:59.505Z,101616.37
2018-09-25T21:15:33.338Z,101601.12
2018-09-25T21:18:07.228Z,101603.48
2018-09-25T21:20:41.222Z,101593.61
2018-09-25T21:23:16.040Z,101593.79
2018-09-25T21:25:51.291Z,101607.07
2018-09-25T21:28:25.780Z,101597.20
2018-09-25T21:30:59.798Z,101600.73
2018-09-25T21:33:33.723Z,101592.87
2018-09-25T21:36:08.069Z,101589.91
2018-09-25T21:38:41.915Z,101584.39
2018-09-25T21:41:16.141Z,101581.23
2018-09-25T21:43:50.229Z,101574.88
2018-09-25T21:46:25.159Z,101569.23
2018-09-25T21:48:59.962Z,101559.36
2018-09-25T21:51:34.103Z,101556.98
2018-09-25T21:54:08.441Z,101539.44
2018-09-25T21:56:42.423Z,101536.25
2018-09-25T21:59:16.986Z,101526.88
2018-09-25T22:01:50.776Z,101523.19
2018-09-25T22:04:25.012Z,101526.49
2018-09-25T22:06:59.657Z,101525.48
2018-09-25T22:09:34.003Z,101511.25
2018-09-25T22:12:07.871Z,101505.06
2018-09-25T22:14:42.149Z,101509.28
2018-09-25T22:17:16.302Z,101497.41
2018-09-25T22:19:50.174Z,101498.23
2018-09-25T22:22:24.457Z,101490.05
2018-09-25T22:24:58.579Z,101483.34
2018-09-25T22:27:32.933Z,101482.67
2018-09-25T22:30:07.513Z,101455.38
2018-09-25T22:32:41.699Z,101450.02
2018-09-25T22:35:15.950Z,101438.28
2018-09-25T22:37:49.796Z,101439.09
2018-09-25T22:40:23.951Z,101430.09
2018-09-25T22:42:57.839Z,101423.07
2018-09-25T22:45:31.901Z,101424.56
2018-09-25T22:48:05.832Z,101422.39
2018-09-25T22:50:41.420Z,101420.21
2018-09-25T22:53:16.125Z,101421.05
2018-09-25T22:55:50.241Z,101406.66
2018-09-25T22:58:24.778Z,101420.89
2018-09-25T23:00:59.798Z,101414.55
2018-09-25T23:03:33.711Z,101398.84
2018-09-25T23:06:08.336Z,101407.88
2018-09-25T23:08:42.157Z,101391.87
2018-09-25T23:11:16.433Z,101396.75
2018-09-25T23:13:50.197Z,101381.03
2018-09-25T23:16:24.275Z,101373.56
2018-09-25T23:18:58.201Z,101367.16
2018-09-25T23:21:32.201Z,101362.02
2018-09-25T23:24:06.213Z,101363.65
2018-09-25T23:26:40.685Z,101358.95
2018-09-25T23:29:14.930Z,101353.41
2018-09-25T23:31:48.710Z,101336.33
2018-09-25T23:34:23.793Z,101343.00
2018-09-25T23:36:58.141Z,101337.28
2018-09-25T23:39:49.771Z,101334.55
2018-09-25T23:42:24.926Z,101324.48
2018-09-25T23:44:58.868Z,101329.63
2018-09-25T23:48:33.812Z,101333.58
2018-09-25T23:51:06.957Z,101328.34
2018-09-25T23:54:44.393Z,101324.64
2018-09-25T23:57:18.691Z,101309.15
2018-09-25T23:59:51.606Z,101300.05
